createdAt,value
2022-08-08T00:01:06.670Z,56.82
2022-08-08T00:03:36.224Z,56.19
2022-08-08T00:06:04.627Z,56.26
2022-08-08T00:08:32.044Z,56.24
2022-08-08T00:10:59.185Z,56.36
2022-08-08T00:14:15.128Z,56.96
2022-08-08T00:16:12.093Z,56.59
2022-08-08T00:18:41.731Z,57.08
2022-08-08T00:21:09.147Z,56.71
2022-08-08T00:23:47.830Z,56.76
2022-08-08T00:26:21.838Z,56.38
2022-08-08T00:28:55.694Z,57.05
2022-08-08T00:32:32.545Z,57.17
2022-08-08T00:34:17.274Z,57.72
2022-08-08T00:36:45.464Z,57.03
2022-08-08T00:41:06.310Z,56.27
2022-08-08T00:42:09.191Z,56.05
2022-08-08T00:44:46.170Z,56.26
2022-08-08T00:47:19.384Z,55.84
2022-08-08T00:49:50.347Z,55.52
2022-08-08T00:52:40.294Z,56.02
2022-08-08T00:55:09.811Z,56.78
2022-08-08T00:57:38.084Z,56.72
2022-08-08T01:00:05.043Z,57.65
2022-08-08T01:03:58.498Z,57.18
2022-08-08T01:05:42.333Z,57.56
2022-08-08T01:08:06.809Z,56.85
2022-08-08T01:10:34.404Z,56.56
2022-08-08T01:13:01.686Z,56.77
2022-08-08T01:15:37.119Z,57.45
2022-08-08T01:18:16.161Z,57.55
2022-08-08T01:20:51.644Z,58.15
2022-08-08T01:24:06.492Z,57.94
2022-08-08T01:26:05.998Z,57.67
2022-08-08T01:28:39.263Z,57.33
2022-08-08T01:31:23.682Z,58.08
2022-08-08T01:34:00.201Z,58.33
2022-08-08T01:36:27.803Z,57.64
2022-08-08T01:38:55.507Z,57.36
2022-08-08T01:41:21.939Z,57.51
2022-08-08T01:43:50.688Z,57.81
2022-08-08T01:46:17.427Z,56.97
2022-08-08T01:48:46.303Z,56.41
2022-08-08T01:51:30.574Z,56.30
2022-08-08T01:55:17.136Z,55.89
2022-08-08T01:56:49.218Z,56.08
2022-08-08T01:59:17.186Z,56.83
2022-08-08T02:01:59.682Z,57.83
2022-08-08T02:04:29.871Z,58.13
2022-08-08T02:06:56.313Z,58.30
2022-08-08T02:10:01.974Z,57.84
2022-08-08T02:12:09.303Z,57.64
2022-08-08T02:14:55.595Z,57.82
2022-08-08T02:17:26.720Z,58.07
2022-08-08T02:20:09.683Z,57.58
2022-08-08T02:22:52.582Z,57.13
2022-08-08T02:25:21.228Z,57.04
2022-08-08T02:27:50.017Z,56.63
2022-08-08T02:30:21.553Z,55.87
2022-08-08T02:32:51.178Z,56.14
2022-08-08T02:35:18.734Z,55.91
2022-08-08T02:37:52.666Z,56.51
2022-08-08T02:40:23.513Z,56.30
2022-08-08T02:43:00.642Z,56.76
2022-08-08T02:45:54.135Z,56.83
2022-08-08T02:48:26.138Z,57.49
2022-08-08T02:50:56.288Z,57.84
2022-08-08T02:53:24.058Z,58.19
2022-08-08T02:55:59.893Z,58.33
2022-08-08T02:58:28.517Z,58.34
2022-08-08T03:00:57.831Z,57.98
2022-08-08T03:03:46.009Z,57.52
2022-08-08T03:06:12.506Z,56.94
2022-08-08T03:08:51.898Z,57.82
2022-08-08T03:11:47.433Z,58.10
2022-08-08T03:16:03.869Z,58.17
2022-08-08T03:16:53.397Z,57.95
2022-08-08T03:19:23.132Z,57.75
2022-08-08T03:21:58.355Z,57.87
2022-08-08T03:24:28.812Z,58.12
2022-08-08T03:26:55.572Z,57.77
2022-08-08T03:29:51.243Z,58.01
2022-08-08T03:32:08.846Z,58.04
2022-08-08T03:34:35.430Z,57.94
2022-08-08T03:37:20.032Z,57.82
2022-08-08T03:40:00.559Z,57.68
2022-08-08T03:42:31.445Z,57.12
2022-08-08T03:44:58.801Z,57.07
2022-08-08T03:47:25.274Z,56.96
2022-08-08T03:50:07.891Z,56.44
2022-08-08T03:52:45.326Z,56.45
2022-08-08T03:55:54.943Z,57.01
2022-08-08T03:58:09.493Z,57.46
2022-08-08T04:00:56.956Z,57.35
2022-08-08T04:03:57.949Z,57.18
2022-08-08T04:06:18.554Z,57.26
2022-08-08T04:08:46.784Z,57.12
2022-08-08T04:11:17.407Z,57.36
2022-08-08T04:14:04.243Z,57.42
2022-08-08T04:16:40.637Z,57.22
2022-08-08T04:19:24.038Z,56.97
2022-08-08T04:21:51.978Z,56.53
2022-08-08T04:24:29.327Z,56.94
2022-08-08T04:26:58.856Z,57.06
2022-08-08T04:29:25.438Z,56.88
2022-08-08T04:31:59.473Z,56.61
2022-08-08T04:34:26.861Z,56.72
2022-08-08T04:36:58.584Z,56.46
2022-08-08T04:40:03.506Z,56.64
2022-08-08T04:42:11.464Z,56.20
2022-08-08T04:44:42.392Z,56.24
2022-08-08T04:47:14.043Z,56.32
2022-08-08T04:50:01.155Z,56.26
2022-08-08T04:52:33.906Z,55.67
2022-08-08T04:55:02.509Z,55.40
2022-08-08T04:57:31.864Z,55.28
2022-08-08T05:00:00.896Z,55.46
2022-08-08T05:02:31.025Z,55.02
2022-08-08T05:04:59.401Z,55.25
2022-08-08T05:07:26.295Z,55.22
2022-08-08T05:09:54.304Z,55.42
2022-08-08T05:12:34.846Z,56.05
2022-08-08T05:15:06.331Z,55.85
2022-08-08T05:17:53.924Z,55.94
2022-08-08T05:20:21.070Z,55.92
2022-08-08T05:22:51.001Z,55.90
2022-08-08T05:25:21.286Z,56.17
2022-08-08T05:27:51.596Z,55.98
2022-08-08T05:30:28.038Z,56.11
2022-08-08T05:32:55.208Z,56.30
2022-08-08T05:35:24.776Z,56.01
2022-08-08T05:37:54.495Z,56.23
2022-08-08T05:40:27.874Z,55.71
2022-08-08T05:42:56.226Z,55.61
2022-08-08T05:45:41.554Z,56.00
2022-08-08T05:48:11.795Z,55.73
2022-08-08T05:50:41.284Z,55.84
2022-08-08T05:53:54.722Z,55.56
2022-08-08T05:56:07.989Z,55.50
2022-08-08T05:58:56.709Z,55.14
2022-08-08T06:01:55.694Z,55.87
2022-08-08T06:04:23.754Z,55.40
2022-08-08T06:06:53.305Z,55.52
2022-08-08T06:09:41.626Z,55.52
2022-08-08T06:12:07.014Z,55.52
2022-08-08T06:14:33.476Z,55.27
2022-08-08T06:17:01.713Z,54.90
2022-08-08T06:19:35.213Z,54.90
2022-08-08T06:22:32.071Z,54.91
2022-08-08T06:24:51.110Z,55.07
2022-08-08T06:27:20.643Z,55.30
2022-08-08T06:29:56.937Z,54.99
2022-08-08T06:32:28.488Z,55.42
2022-08-08T06:35:11.874Z,55.29
2022-08-08T06:37:43.436Z,55.39
2022-08-08T06:40:15.950Z,55.54
2022-08-08T06:42:43.957Z,55.02
2022-08-08T06:45:10.372Z,55.35
2022-08-08T06:47:52.705Z,55.35
2022-08-08T06:50:31.726Z,55.33
2022-08-08T06:52:58.890Z,55.53
2022-08-08T06:55:26.281Z,55.23
2022-08-08T06:57:57.535Z,55.14
2022-08-08T07:00:30.087Z,54.92
2022-08-08T07:02:59.070Z,54.43
2022-08-08T07:05:29.895Z,54.62
2022-08-08T07:08:06.487Z,54.24
2022-08-08T07:10:35.196Z,54.41
2022-08-08T07:13:04.340Z,54.07
2022-08-08T07:16:03.645Z,53.64
2022-08-08T07:18:36.017Z,53.49
2022-08-08T07:21:04.990Z,53.88
2022-08-08T07:24:01.405Z,54.68
2022-08-08T07:26:17.893Z,54.41
2022-08-08T07:28:56.549Z,54.47
2022-08-08T07:31:22.956Z,54.34
2022-08-08T07:33:53.333Z,54.41
2022-08-08T07:36:25.510Z,53.85
2022-08-08T07:38:53.385Z,54.34
2022-08-08T07:41:23.681Z,53.87
2022-08-08T07:43:53.573Z,54.49
2022-08-08T07:46:29.167Z,54.33
2022-08-08T07:48:56.997Z,54.41
2022-08-08T07:51:53.049Z,54.07
2022-08-08T07:54:09.992Z,53.67
2022-08-08T07:56:37.152Z,53.48
2022-08-08T07:59:03.749Z,53.61
2022-08-08T08:02:36.578Z,53.66
2022-08-08T08:04:19.559Z,54.17
2022-08-08T08:06:47.232Z,53.71
2022-08-08T08:09:13.614Z,53.28
2022-08-08T08:11:51.172Z,53.76
2022-08-08T08:14:18.414Z,52.89
2022-08-08T08:16:50.487Z,53.48
2022-08-08T08:19:17.316Z,53.83
2022-08-08T08:21:57.885Z,53.35
2022-08-08T08:24:30.814Z,53.69
2022-08-08T08:27:02.831Z,53.34
2022-08-08T08:29:30.070Z,53.49
2022-08-08T08:31:57.720Z,52.62
2022-08-08T08:34:24.947Z,52.60
2022-08-08T08:36:59.041Z,52.66
2022-08-08T08:39:25.434Z,52.21
2022-08-08T08:42:13.364Z,50.94
2022-08-08T08:44:39.885Z,50.21
2022-08-08T08:47:08.845Z,51.68
2022-08-08T08:49:36.767Z,51.69
2022-08-08T08:52:09.245Z,50.94
2022-08-08T08:54:35.655Z,51.57
2022-08-08T08:57:04.986Z,51.38
2022-08-08T08:59:58.834Z,50.88
2022-08-08T09:02:28.467Z,50.59
2022-08-08T09:04:57.659Z,51.17
2022-08-08T09:07:24.030Z,50.72
2022-08-08T09:10:06.985Z,50.80
2022-08-08T09:12:37.506Z,51.04
2022-08-08T09:15:06.200Z,50.45
2022-08-08T09:17:41.987Z,50.77
2022-08-08T09:22:01.321Z,51.13
2022-08-08T09:23:10.589Z,51.34
2022-08-08T09:25:54.333Z,51.34
2022-08-08T09:28:37.138Z,51.49
2022-08-08T09:31:12.276Z,50.85
2022-08-08T09:34:14.957Z,50.99
2022-08-08T09:36:25.751Z,50.87
2022-08-08T09:38:54.158Z,51.29
2022-08-08T09:41:20.726Z,50.39
2022-08-08T09:44:05.480Z,51.97
2022-08-08T09:46:33.501Z,50.33
2022-08-08T09:49:18.019Z,50.60
2022-08-08T09:52:01.741Z,50.44
2022-08-08T09:54:36.589Z,50.27
2022-08-08T09:57:04.385Z,50.24
2022-08-08T10:00:01.929Z,49.75
2022-08-08T10:02:17.055Z,49.89
2022-08-08T10:04:47.881Z,49.70
2022-08-08T10:07:15.775Z,49.69
2022-08-08T10:09:59.929Z,50.20
2022-08-08T10:12:37.448Z,49.87
2022-08-08T10:15:17.678Z,49.75
2022-08-08T10:18:06.145Z,49.92
2022-08-08T10:20:40.605Z,50.35
2022-08-08T10:23:20.931Z,49.63
2022-08-08T10:26:25.853Z,49.32
2022-08-08T10:28:53.919Z,48.47
2022-08-08T10:31:20.880Z,49.50
2022-08-08T10:34:20.153Z,49.45
2022-08-08T10:36:47.408Z,49.64
2022-08-08T10:39:13.964Z,49.81
2022-08-08T10:42:13.377Z,49.93
2022-08-08T10:44:27.323Z,50.18
2022-08-08T10:46:55.645Z,48.88
2022-08-08T10:50:00.451Z,48.33
2022-08-08T10:52:09.484Z,47.67
2022-08-08T10:54:40.646Z,47.51
2022-08-08T10:57:08.867Z,47.50
2022-08-08T10:59:40.005Z,48.78
2022-08-08T11:02:07.528Z,46.80
2022-08-08T11:04:39.356Z,46.51
2022-08-08T11:07:05.915Z,47.83
2022-08-08T11:09:33.339Z,47.26
2022-08-08T11:12:12.501Z,47.94
2022-08-08T11:14:40.383Z,48.53
2022-08-08T11:17:15.019Z,49.29
2022-08-08T11:19:42.221Z,46.75
2022-08-08T11:22:12.990Z,44.55
2022-08-08T11:24:39.330Z,45.39
2022-08-08T11:27:10.468Z,46.51
2022-08-08T11:30:04.189Z,47.06
2022-08-08T11:32:32.840Z,47.48
2022-08-08T11:35:27.939Z,48.38
2022-08-08T11:38:35.565Z,47.97
2022-08-08T11:40:35.560Z,48.66
2022-08-08T11:43:02.402Z,49.82
2022-08-08T11:45:29.898Z,48.64
2022-08-08T11:48:06.288Z,48.75
2022-08-08T11:50:36.241Z,48.16
2022-08-08T11:53:06.357Z,48.18
2022-08-08T11:55:33.052Z,47.03
2022-08-08T11:58:01.627Z,46.97
2022-08-08T12:00:33.342Z,45.75
2022-08-08T12:02:59.725Z,45.55
2022-08-08T12:05:26.108Z,44.96
2022-08-08T12:07:56.034Z,44.51
2022-08-08T12:10:22.992Z,44.22
2022-08-08T12:12:49.338Z,44.59
2022-08-08T12:15:18.312Z,45.12
2022-08-08T12:17:51.225Z,44.96
2022-08-08T12:20:17.770Z,46.48
2022-08-08T12:22:45.730Z,45.41
2022-08-08T12:25:12.279Z,44.19
2022-08-08T12:27:45.325Z,43.93
2022-08-08T12:30:18.390Z,43.29
2022-08-08T12:32:48.221Z,43.42
2022-08-08T12:35:18.218Z,42.76
2022-08-08T12:38:01.293Z,44.03
2022-08-08T12:40:29.051Z,45.32
2022-08-08T12:42:56.454Z,45.41
2022-08-08T12:45:57.853Z,45.65
2022-08-08T12:48:36.633Z,46.23
2022-08-08T12:50:57.462Z,46.02
2022-08-08T12:53:24.863Z,46.14
2022-08-08T12:56:17.507Z,46.42
2022-08-08T12:58:43.148Z,46.90
2022-08-08T13:01:11.023Z,46.39
2022-08-08T13:03:37.593Z,46.51
2022-08-08T13:06:06.678Z,46.42
2022-08-08T13:08:38.066Z,47.24
2022-08-08T13:11:04.426Z,46.93
2022-08-08T13:13:35.487Z,46.26
2022-08-08T13:16:04.177Z,45.96
2022-08-08T13:18:30.530Z,46.39
2022-08-08T13:21:16.352Z,45.86
2022-08-08T13:23:46.994Z,44.57
2022-08-08T13:26:15.224Z,44.91
2022-08-08T13:28:42.510Z,44.20
2022-08-08T13:31:09.184Z,45.64
2022-08-08T13:33:42.027Z,46.46
2022-08-08T13:36:09.501Z,45.76
2022-08-08T13:38:35.870Z,46.27
2022-08-08T13:41:03.415Z,45.83
2022-08-08T13:43:29.765Z,46.55
2022-08-08T13:45:56.702Z,47.25
2022-08-08T13:48:26.487Z,47.45
2022-08-08T13:50:57.832Z,47.52
2022-08-08T13:53:39.195Z,47.01
2022-08-08T13:56:06.153Z,47.68
2022-08-08T13:58:33.031Z,47.45
2022-08-08T14:00:59.664Z,47.88
2022-08-08T14:03:47.095Z,47.80
2022-08-08T14:06:32.015Z,48.06
2022-08-08T14:08:58.736Z,47.20
2022-08-08T14:11:25.068Z,47.03
2022-08-08T14:13:59.214Z,47.07
2022-08-08T14:16:27.402Z,47.32
2022-08-08T14:18:56.896Z,46.65
2022-08-08T14:21:23.231Z,46.87
2022-08-08T14:24:06.363Z,46.80
2022-08-08T14:26:34.512Z,46.84
2022-08-08T14:29:06.003Z,46.64
2022-08-08T14:32:08.973Z,45.73
2022-08-08T14:34:27.787Z,45.56
2022-08-08T14:36:56.084Z,45.64
2022-08-08T14:39:25.066Z,45.41
2022-08-08T14:42:09.132Z,45.24
2022-08-08T14:44:39.389Z,45.82
2022-08-08T14:47:16.705Z,46.17
2022-08-08T14:50:05.875Z,46.55
2022-08-08T14:52:34.207Z,46.33
2022-08-08T14:55:00.838Z,46.60
2022-08-08T14:58:00.648Z,47.01
2022-08-08T15:00:14.530Z,46.87
2022-08-08T15:02:58.701Z,47.83
2022-08-08T15:05:33.941Z,47.92
2022-08-08T15:08:21.623Z,48.19
2022-08-08T15:10:49.139Z,48.17
2022-08-08T15:13:15.871Z,47.86
2022-08-08T15:16:01.182Z,47.76
2022-08-08T15:18:29.841Z,47.89
2022-08-08T15:20:56.361Z,48.37
2022-08-08T15:23:22.774Z,46.62
2022-08-08T15:25:59.308Z,47.66
2022-08-08T15:28:33.925Z,47.99
2022-08-08T15:31:01.045Z,48.21
2022-08-08T15:33:35.511Z,48.40
2022-08-08T15:36:05.171Z,47.79
2022-08-08T15:38:32.434Z,48.38
2022-08-08T15:40:58.772Z,48.29
2022-08-08T15:43:35.603Z,48.05
2022-08-08T15:46:02.994Z,47.10
2022-08-08T15:48:29.372Z,46.92
2022-08-08T15:50:57.388Z,46.90
2022-08-08T15:53:25.141Z,47.36
2022-08-08T15:55:52.463Z,47.59
2022-08-08T15:58:18.812Z,47.62
2022-08-08T16:00:54.615Z,47.42
2022-08-08T16:03:21.030Z,47.68
2022-08-08T16:06:01.154Z,46.96
2022-08-08T16:08:28.665Z,46.72
2022-08-08T16:13:09.455Z,46.83
2022-08-08T16:13:45.287Z,46.18
2022-08-08T16:16:18.144Z,46.16
2022-08-08T16:18:56.661Z,46.46
2022-08-08T16:21:26.873Z,45.70
2022-08-08T16:23:55.375Z,46.67
2022-08-08T16:26:23.025Z,46.00
2022-08-08T16:29:00.014Z,46.03
2022-08-08T16:31:26.739Z,46.33
2022-08-08T16:33:58.212Z,46.36
2022-08-08T16:36:33.703Z,46.55
2022-08-08T16:39:00.531Z,45.88
2022-08-08T16:41:26.939Z,46.03
2022-08-08T16:43:55.832Z,46.03
2022-08-08T16:46:38.475Z,46.23
2022-08-08T16:49:09.318Z,45.98
2022-08-08T16:55:02.517Z,45.98
2022-08-08T16:55:02.586Z,45.37
2022-08-08T16:58:12.218Z,46.09
2022-08-08T16:59:55.778Z,46.13
2022-08-08T17:02:38.501Z,45.98
2022-08-08T17:05:06.181Z,46.54
2022-08-08T17:07:32.535Z,46.11
2022-08-08T17:09:58.900Z,46.32
2022-08-08T17:12:28.549Z,46.70
2022-08-08T17:14:55.191Z,46.38
2022-08-08T17:17:41.358Z,46.35
2022-08-08T17:20:07.903Z,46.52
2022-08-08T17:22:39.375Z,46.54
2022-08-08T17:25:09.045Z,46.78
2022-08-08T17:27:46.328Z,46.36
2022-08-08T17:30:23.609Z,46.89
2022-08-08T17:34:49.473Z,46.44
2022-08-08T17:35:56.112Z,46.63
2022-08-08T17:38:30.990Z,46.55
2022-08-08T17:40:57.500Z,46.82
2022-08-08T17:43:23.858Z,46.47
2022-08-08T17:45:52.260Z,46.69
2022-08-08T17:48:29.241Z,46.53
2022-08-08T17:50:57.576Z,46.93
2022-08-08T17:53:31.244Z,46.75
2022-08-08T17:56:11.012Z,46.68
2022-08-08T17:58:38.884Z,47.54
2022-08-08T18:01:05.290Z,46.99
2022-08-08T18:03:36.499Z,46.24
2022-08-08T18:06:02.905Z,46.72
2022-08-08T18:08:46.508Z,46.31
2022-08-08T18:11:15.021Z,46.00
2022-08-08T18:13:42.512Z,46.73
2022-08-08T18:16:09.905Z,46.09
2022-08-08T18:18:42.796Z,46.38
2022-08-08T18:21:25.129Z,45.95
2022-08-08T18:23:58.133Z,46.01
2022-08-08T18:26:25.656Z,46.08
2022-08-08T18:28:55.571Z,46.07
2022-08-08T18:31:21.965Z,45.83
2022-08-08T18:34:11.906Z,45.51
2022-08-08T18:36:34.677Z,45.58
2022-08-08T18:39:02.499Z,46.06
2022-08-08T18:41:51.913Z,46.00
2022-08-08T18:44:16.111Z,45.47
2022-08-08T18:46:54.395Z,45.75
2022-08-08T18:49:24.288Z,45.87
2022-08-08T18:51:54.597Z,45.31
2022-08-08T18:54:24.808Z,46.22
2022-08-08T18:56:56.205Z,46.28
2022-08-08T18:59:23.183Z,45.72
2022-08-08T19:02:26.090Z,45.73
2022-08-08T19:04:36.017Z,46.49
2022-08-08T19:07:03.006Z,46.31
2022-08-08T19:09:48.287Z,46.78
2022-08-08T19:12:15.753Z,46.79
2022-08-08T19:14:42.915Z,47.04
2022-08-08T19:17:10.710Z,46.82
2022-08-08T19:19:37.405Z,46.67
2022-08-08T19:22:10.665Z,46.43
2022-08-08T19:24:49.086Z,46.72
2022-08-08T19:27:57.226Z,47.18
2022-08-08T19:30:18.001Z,48.05
2022-08-08T19:32:50.656Z,47.55
2022-08-08T19:35:17.045Z,47.79
2022-08-08T19:37:48.593Z,47.39
2022-08-08T19:40:21.942Z,47.43
2022-08-08T19:42:57.627Z,47.88
2022-08-08T19:45:58.538Z,48.23
2022-08-08T19:48:28.186Z,47.36
2022-08-08T19:50:56.816Z,47.33
2022-08-08T19:53:51.928Z,47.84
2022-08-08T19:56:12.164Z,47.88
2022-08-08T19:58:39.328Z,47.76
2022-08-08T20:01:05.882Z,48.13
2022-08-08T20:04:01.936Z,47.73
2022-08-08T20:06:21.291Z,47.43
2022-08-08T20:08:48.900Z,47.60
2022-08-08T20:11:15.396Z,47.28
2022-08-08T20:14:11.908Z,47.49
2022-08-08T20:16:29.525Z,47.89
2022-08-08T20:18:56.161Z,47.98
2022-08-08T20:21:23.043Z,47.31
2022-08-08T20:23:52.314Z,47.16
2022-08-08T20:26:22.791Z,47.25
2022-08-08T20:28:54.130Z,47.47
2022-08-08T20:31:21.979Z,47.84
2022-08-08T20:34:27.957Z,47.22
2022-08-08T20:36:35.026Z,47.75
2022-08-08T20:39:05.090Z,47.50
2022-08-08T20:41:31.531Z,46.95
2022-08-08T20:44:00.277Z,47.82
2022-08-08T20:46:26.685Z,47.31
2022-08-08T20:48:58.402Z,47.43
2022-08-08T20:51:26.194Z,47.61
2022-08-08T20:54:04.877Z,47.62
2022-08-08T20:57:05.891Z,47.57
2022-08-08T20:59:26.531Z,47.63
2022-08-08T21:02:06.726Z,48.13
2022-08-08T21:04:34.423Z,48.42
2022-08-08T21:07:01.119Z,48.52
2022-08-08T21:10:02.242Z,48.44
2022-08-08T21:12:19.017Z,48.11
2022-08-08T21:14:51.274Z,47.78
2022-08-08T21:17:20.425Z,47.63
2022-08-08T21:19:47.980Z,47.63
2022-08-08T21:22:15.485Z,47.70
2022-08-08T21:24:53.229Z,48.07
2022-08-08T21:28:05.038Z,48.29
2022-08-08T21:30:10.824Z,48.06
2022-08-08T21:32:44.412Z,48.29
2022-08-08T21:36:17.739Z,48.55
2022-08-08T21:38:04.142Z,48.48
2022-08-08T21:40:32.150Z,48.61
2022-08-08T21:42:58.604Z,48.11
2022-08-08T21:48:00.374Z,48.36
2022-08-08T21:48:21.821Z,48.36
2022-08-08T21:50:56.602Z,48.86
2022-08-08T21:54:31.089Z,48.42
2022-08-08T21:56:19.112Z,48.63
2022-08-08T21:58:56.853Z,49.10
2022-08-08T22:01:39.070Z,49.12
2022-08-08T22:04:07.800Z,49.05
2022-08-08T22:06:39.499Z,48.93
2022-08-08T22:09:08.539Z,48.75
2022-08-08T22:12:02.420Z,49.15
2022-08-08T22:14:21.555Z,48.98
2022-08-08T22:16:47.929Z,48.98
2022-08-08T22:19:19.889Z,48.74
2022-08-08T22:21:50.550Z,49.14
2022-08-08T22:24:17.270Z,48.92
2022-08-08T22:27:02.287Z,48.59
2022-08-08T22:30:01.400Z,48.99
2022-08-08T22:32:16.030Z,49.38
2022-08-08T22:34:44.716Z,49.12
2022-08-08T22:37:49.078Z,49.42
2022-08-08T22:40:03.630Z,49.03
2022-08-08T22:42:31.913Z,49.14
2022-08-08T22:45:00.965Z,49.49
2022-08-08T22:47:37.531Z,49.36
2022-08-08T22:50:04.842Z,49.71
2022-08-08T22:52:36.444Z,49.36
2022-08-08T22:55:04.944Z,49.44
2022-08-08T22:57:49.152Z,49.42
2022-08-08T23:00:16.540Z,49.61
2022-08-08T23:02:44.586Z,49.71
2022-08-08T23:05:17.304Z,49.40
2022-08-08T23:07:57.196Z,49.79
2022-08-08T23:10:25.479Z,49.62
2022-08-08T23:12:53.263Z,49.98
2022-08-08T23:16:41.378Z,50.02
2022-08-08T23:18:06.334Z,49.98
2022-08-08T23:20:34.046Z,50.58
2022-08-08T23:23:00.402Z,50.27
2022-08-08T23:25:26.868Z,50.20
2022-08-08T23:27:54.476Z,50.62
2022-08-08T23:30:21.068Z,50.32
2022-08-08T23:32:48.150Z,50.46
2022-08-08T23:35:17.320Z,50.02
2022-08-08T23:38:01.960Z,50.10
2022-08-08T23:40:30.278Z,50.66
2022-08-08T23:42:56.748Z,50.10
2022-08-08T23:49:00.210Z,49.87
2022-08-08T23:49:04.762Z,50.38
2022-08-08T23:50:57.181Z,50.48
2022-08-08T23:53:55.900Z,49.88
2022-08-08T23:56:12.086Z,50.48
2022-08-08T23:58:38.595Z,49.96
